createdAt,value
2023-01-08T00:01:40.403Z,318.75
2023-01-08T00:04:29.031Z,285.98
2023-01-08T00:07:11.241Z,293.55
2023-01-08T00:10:00.043Z,293.98
2023-01-08T00:12:42.211Z,300.45
2023-01-08T00:15:31.857Z,290.58
2023-01-08T00:18:20.977Z,299.38
2023-01-08T00:21:09.929Z,302.13
2023-01-08T00:23:58.988Z,302.30
2023-01-08T00:26:47.969Z,304.67
2023-01-08T00:29:30.289Z,328.48
2023-01-08T00:32:19.029Z,312.25
2023-01-08T00:35:02.618Z,319.42
2023-01-08T00:37:52.923Z,328.90
2023-01-08T00:40:35.584Z,331.17
2023-01-08T00:43:29.975Z,323.50
2023-01-08T00:46:22.015Z,331.33
2023-01-08T00:49:04.217Z,315.83
2023-01-08T00:51:52.891Z,343.90
2023-01-08T00:54:36.327Z,333.83
2023-01-08T00:57:24.886Z,355.35
2023-01-08T01:00:07.313Z,358.73
2023-01-08T01:02:56.029Z,369.63
2023-01-08T01:05:38.339Z,377.15
2023-01-08T01:08:26.944Z,372.80
2023-01-08T01:11:19.913Z,373.02
2023-01-08T01:14:02.340Z,383.90
2023-01-08T01:16:51.959Z,400.33
2023-01-08T01:19:34.249Z,384.13
2023-01-08T01:22:22.972Z,404.92
2023-01-08T01:25:05.745Z,400.88
2023-01-08T01:27:54.966Z,366.55
2023-01-08T01:30:44.118Z,337.95
2023-01-08T01:33:26.243Z,355.13
2023-01-08T01:36:15.932Z,342.90
2023-01-08T01:39:00.399Z,368.15
2023-01-08T01:41:53.963Z,342.92
2023-01-08T01:44:44.465Z,332.05
2023-01-08T01:47:46.947Z,302.63
2023-01-08T01:50:46.969Z,297.42
2023-01-08T01:53:34.098Z,287.98
2023-01-08T01:56:24.341Z,336.55
2023-01-08T01:59:07.243Z,295.92
2023-01-08T02:01:57.071Z,295.73
2023-01-08T02:04:39.367Z,313.73
2023-01-08T02:08:05.872Z,288.45
2023-01-08T02:11:04.968Z,323.65
2023-01-08T02:13:51.230Z,272.40
2023-01-08T02:16:53.970Z,284.33
2023-01-08T02:19:48.248Z,308.75
2023-01-08T02:22:42.868Z,307.20
2023-01-08T02:25:31.293Z,356.52
2023-01-08T02:28:22.861Z,336.73
2023-01-08T02:31:06.366Z,298.35
2023-01-08T02:33:54.865Z,318.90
2023-01-08T02:36:50.863Z,296.83
2023-01-08T02:40:14.162Z,322.35
2023-01-08T02:43:26.846Z,306.38
2023-01-08T02:46:21.294Z,274.63
2023-01-08T02:49:11.859Z,270.42
2023-01-08T02:52:05.278Z,270.20
2023-01-08T02:54:50.013Z,346.83
2023-01-08T02:57:41.309Z,270.83
2023-01-08T03:00:23.936Z,297.75
2023-01-08T03:03:28.318Z,314.83
2023-01-08T03:06:21.857Z,364.67
2023-01-08T03:09:11.202Z,356.05
2023-01-08T03:12:07.880Z,357.27
2023-01-08T03:14:57.293Z,369.33
2023-01-08T03:17:50.894Z,399.88
2023-01-08T03:20:34.651Z,369.35
2023-01-08T03:23:25.815Z,348.67
2023-01-08T03:26:15.240Z,370.33
2023-01-08T03:29:01.898Z,340.60
2023-01-08T03:31:52.981Z,352.50
2023-01-08T03:34:38.260Z,334.25
2023-01-08T03:37:32.846Z,317.27
2023-01-08T03:40:25.794Z,307.73
2023-01-08T03:43:14.959Z,302.00
2023-01-08T03:46:11.207Z,302.77
2023-01-08T03:48:54.921Z,285.00
2023-01-08T03:51:54.220Z,272.20
2023-01-08T03:54:40.929Z,288.83
2023-01-08T03:57:23.531Z,285.15
2023-01-08T04:00:12.866Z,284.92
2023-01-08T04:03:03.227Z,282.00
2023-01-08T04:05:46.215Z,288.45
2023-01-08T04:08:34.977Z,303.65
2023-01-08T04:11:17.186Z,277.27
2023-01-08T04:14:05.875Z,270.13
2023-01-08T04:16:48.295Z,282.52
2023-01-08T04:19:36.929Z,264.63
2023-01-08T04:22:19.188Z,277.77
2023-01-08T04:25:07.897Z,268.63
2023-01-08T04:27:50.200Z,256.30
2023-01-08T04:30:38.925Z,262.45
2023-01-08T04:33:21.246Z,261.50
2023-01-08T04:36:10.981Z,257.95
2023-01-08T04:38:59.927Z,260.92
2023-01-08T04:41:48.260Z,268.92
2023-01-08T04:44:42.876Z,270.05
2023-01-08T04:47:25.140Z,253.05
2023-01-08T04:50:13.948Z,261.00
2023-01-08T04:53:02.207Z,260.92
2023-01-08T04:55:44.951Z,260.33
2023-01-08T04:58:33.167Z,258.27
2023-01-08T05:01:28.080Z,242.75
2023-01-08T05:04:12.203Z,250.43
2023-01-08T05:07:01.218Z,245.05
2023-01-08T05:09:49.273Z,261.00
2023-01-08T05:12:31.909Z,246.57
2023-01-08T05:15:20.200Z,248.50
2023-01-08T05:18:13.955Z,239.88
2023-01-08T05:20:56.728Z,232.93
2023-01-08T05:23:46.842Z,244.43
2023-01-08T05:26:35.869Z,232.00
2023-01-08T05:29:24.816Z,231.52
2023-01-08T05:32:22.158Z,242.77
2023-01-08T05:35:03.993Z,235.45
2023-01-08T05:37:52.202Z,243.88
2023-01-08T05:40:34.878Z,235.18
2023-01-08T05:43:17.207Z,243.40
2023-01-08T05:46:05.974Z,230.30
2023-01-08T05:48:54.874Z,235.43
2023-01-08T05:51:43.832Z,227.95
2023-01-08T05:54:32.181Z,231.02
2023-01-08T05:57:13.823Z,233.07
2023-01-08T06:00:02.135Z,220.60
2023-01-08T06:02:47.019Z,239.77
2023-01-08T06:05:36.417Z,232.57
2023-01-08T06:08:17.828Z,230.85
2023-01-08T06:11:07.779Z,224.05
2023-01-08T06:13:58.888Z,231.80
2023-01-08T06:16:48.233Z,217.07
2023-01-08T06:19:30.931Z,216.13
2023-01-08T06:22:19.222Z,239.95
2023-01-08T06:25:01.852Z,245.13
2023-01-08T06:27:50.937Z,259.95
2023-01-08T06:30:39.943Z,239.38
2023-01-08T06:33:29.182Z,219.48
2023-01-08T06:36:12.926Z,212.88
2023-01-08T06:39:01.242Z,222.93
2023-01-08T06:41:42.905Z,214.88
2023-01-08T06:44:37.762Z,200.65
2023-01-08T06:47:26.934Z,196.95
2023-01-08T06:50:09.290Z,202.10
2023-01-08T06:53:01.844Z,196.30
2023-01-08T06:55:45.163Z,196.70
2023-01-08T06:58:37.941Z,181.45
2023-01-08T07:01:24.354Z,202.83
2023-01-08T07:04:12.889Z,194.05
2023-01-08T07:07:02.871Z,184.18
2023-01-08T07:09:51.884Z,191.98
2023-01-08T07:12:34.128Z,168.30
2023-01-08T07:15:22.917Z,183.27
2023-01-08T07:18:07.007Z,183.50
2023-01-08T07:20:57.916Z,177.23
2023-01-08T07:23:42.949Z,184.13
2023-01-08T07:26:31.799Z,167.90
2023-01-08T07:29:20.907Z,175.35
2023-01-08T07:32:03.841Z,170.60
2023-01-08T07:34:52.825Z,176.35
2023-01-08T07:37:42.175Z,175.73
2023-01-08T07:40:24.825Z,176.68
2023-01-08T07:43:14.748Z,188.40
2023-01-08T07:46:09.828Z,180.18
2023-01-08T07:48:58.534Z,198.85
2023-01-08T07:51:41.891Z,178.82
2023-01-08T07:54:30.207Z,180.13
2023-01-08T07:57:12.889Z,181.25
2023-01-08T08:00:01.177Z,185.60
2023-01-08T08:02:43.972Z,182.48
2023-01-08T08:05:32.096Z,177.07
2023-01-08T08:08:18.869Z,184.23
2023-01-08T08:11:08.200Z,194.70
2023-01-08T08:13:54.186Z,174.10
2023-01-08T08:16:43.770Z,180.82
2023-01-08T08:19:32.781Z,170.48
2023-01-08T08:22:22.191Z,165.93
2023-01-08T08:25:04.833Z,173.50
2023-01-08T08:27:53.853Z,166.43
2023-01-08T08:30:37.173Z,156.38
2023-01-08T08:33:25.828Z,161.77
2023-01-08T08:36:08.167Z,153.82
2023-01-08T08:38:56.831Z,159.50
2023-01-08T08:41:39.122Z,145.95
2023-01-08T08:44:27.817Z,146.13
2023-01-08T08:47:10.403Z,143.13
2023-01-08T08:49:58.859Z,143.18
2023-01-08T08:52:48.782Z,140.57
2023-01-08T08:55:38.163Z,146.95
2023-01-08T08:58:21.865Z,141.55
2023-01-08T09:01:05.145Z,128.15
2023-01-08T09:03:53.876Z,135.05
2023-01-08T09:06:42.853Z,128.15
2023-01-08T09:09:25.209Z,143.27
2023-01-08T09:12:14.880Z,131.63
2023-01-08T09:14:58.070Z,135.77
2023-01-08T09:17:47.908Z,133.75
2023-01-08T09:20:31.191Z,127.93
2023-01-08T09:23:19.887Z,136.98
2023-01-08T09:26:11.228Z,135.50
2023-01-08T09:28:59.862Z,134.07
2023-01-08T09:31:48.958Z,135.43
2023-01-08T09:34:38.893Z,127.97
2023-01-08T09:37:28.221Z,137.20
2023-01-08T09:40:16.120Z,128.50
2023-01-08T09:43:10.709Z,127.53
2023-01-08T09:46:10.791Z,129.93
2023-01-08T09:48:54.954Z,126.45
2023-01-08T09:51:49.909Z,122.65
2023-01-08T09:54:39.114Z,122.35
2023-01-08T09:57:26.863Z,128.93
2023-01-08T10:00:29.257Z,129.38
2023-01-08T10:03:11.855Z,135.63
2023-01-08T10:06:01.096Z,130.50
2023-01-08T10:08:42.876Z,136.13
2023-01-08T10:11:27.987Z,137.85
2023-01-08T10:14:16.791Z,131.73
2023-01-08T10:17:22.861Z,145.45
2023-01-08T10:20:05.360Z,139.95
2023-01-08T10:22:57.968Z,164.93
2023-01-08T10:25:40.230Z,154.85
2023-01-08T10:28:40.102Z,163.77
2023-01-08T10:31:24.313Z,152.15
2023-01-08T10:34:18.810Z,153.65
2023-01-08T10:37:03.194Z,161.48
2023-01-08T10:40:02.823Z,146.48
2023-01-08T10:42:45.133Z,146.38
2023-01-08T10:45:42.866Z,149.73
2023-01-08T10:48:34.298Z,140.43
2023-01-08T10:51:23.865Z,134.18
2023-01-08T10:54:45.183Z,129.40
2023-01-08T10:57:40.797Z,129.27
2023-01-08T11:00:41.179Z,125.43
2023-01-08T11:03:39.856Z,132.05
2023-01-08T11:06:35.317Z,125.22
2023-01-08T11:09:35.885Z,123.75
2023-01-08T11:12:23.888Z,130.63
2023-01-08T11:15:14.907Z,123.10
2023-01-08T11:18:12.137Z,125.80
2023-01-08T11:20:55.817Z,122.72
2023-01-08T11:23:44.771Z,128.48
2023-01-08T11:26:36.863Z,126.20
2023-01-08T11:29:38.391Z,116.45
2023-01-08T11:32:58.152Z,126.13
2023-01-08T11:35:46.315Z,126.50
2023-01-08T11:38:34.817Z,132.93
2023-01-08T11:41:31.418Z,133.43
2023-01-08T11:44:53.843Z,131.23
2023-01-08T11:48:19.135Z,126.13
2023-01-08T11:51:21.913Z,127.70
2023-01-08T11:54:19.143Z,138.18
2023-01-08T11:57:27.889Z,134.07
2023-01-08T12:00:38.681Z,136.52
2023-01-08T12:03:45.863Z,135.75
2023-01-08T12:07:06.178Z,143.20
2023-01-08T12:09:54.895Z,138.00
2023-01-08T12:12:47.576Z,159.32
2023-01-08T12:15:49.837Z,150.15
2023-01-08T12:18:43.791Z,156.35
2023-01-08T12:21:42.120Z,143.32
2023-01-08T12:25:02.862Z,153.70
2023-01-08T12:28:06.782Z,147.45
2023-01-08T12:31:21.232Z,157.80
2023-01-08T12:34:25.165Z,176.18
2023-01-08T12:40:29.829Z,155.77
2023-01-08T12:43:30.884Z,156.95
2023-01-08T12:46:28.829Z,163.43
2023-01-08T12:49:27.724Z,169.93
2023-01-08T12:52:24.888Z,169.35
2023-01-08T12:55:24.708Z,164.65
2023-01-08T12:58:23.847Z,171.07
2023-01-08T13:01:26.002Z,178.30
2023-01-08T13:04:17.169Z,187.52
2023-01-08T13:07:06.813Z,178.63
2023-01-08T13:09:57.477Z,171.93
2023-01-08T13:12:51.836Z,169.70
2023-01-08T13:15:42.134Z,171.10
2023-01-08T13:18:27.846Z,179.60
2023-01-08T13:21:26.862Z,177.00
2023-01-08T13:24:40.879Z,181.23
2023-01-08T13:27:23.220Z,181.13
2023-01-08T13:30:11.778Z,174.55
2023-01-08T13:33:02.851Z,180.95
2023-01-08T13:35:51.089Z,183.50
2023-01-08T13:38:34.135Z,181.70
2023-01-08T13:42:12.334Z,183.43
2023-01-08T13:45:10.011Z,186.95
2023-01-08T13:47:59.832Z,190.73
2023-01-08T13:50:44.225Z,182.77
2023-01-08T13:53:32.868Z,184.38
2023-01-08T13:56:17.170Z,181.82
2023-01-08T13:59:16.917Z,183.98
2023-01-08T14:02:04.274Z,182.82
2023-01-08T14:08:31.180Z,187.95
2023-01-08T14:13:55.540Z,180.23
2023-01-08T14:16:44.951Z,183.68
2023-01-08T14:22:37.877Z,177.60
2023-01-08T14:25:27.895Z,183.10
2023-01-08T14:28:15.119Z,177.23
2023-01-08T14:31:05.867Z,182.90
2023-01-08T14:33:57.117Z,189.57
2023-01-08T14:39:45.097Z,176.20
2023-01-08T14:42:54.765Z,182.30
2023-01-08T14:45:40.373Z,180.45
2023-01-08T14:48:34.036Z,177.45
2023-01-08T14:51:21.497Z,181.00
2023-01-08T14:54:13.852Z,180.77
2023-01-08T14:57:07.706Z,188.25
2023-01-08T15:00:05.837Z,196.73
2023-01-08T15:02:48.157Z,183.60
2023-01-08T15:05:41.846Z,195.23
2023-01-08T15:08:34.213Z,186.73
2023-01-08T15:11:38.812Z,194.52
2023-01-08T15:14:30.792Z,200.95
2023-01-08T15:17:25.853Z,188.48
2023-01-08T15:20:08.109Z,187.82
2023-01-08T15:22:56.822Z,204.07
2023-01-08T15:25:52.745Z,201.90
2023-01-08T15:28:42.842Z,201.20
2023-01-08T15:31:39.039Z,214.88
2023-01-08T15:34:28.826Z,204.52
2023-01-08T15:37:11.179Z,214.05
2023-01-08T15:39:59.875Z,214.07
2023-01-08T15:43:00.317Z,199.07
2023-01-08T15:45:53.882Z,195.55
2023-01-08T15:48:48.659Z,209.23
2023-01-08T15:51:42.118Z,206.73
2023-01-08T15:54:24.145Z,226.30
2023-01-08T15:57:12.857Z,203.73
2023-01-08T15:59:55.398Z,218.27
2023-01-08T16:02:54.945Z,227.68
2023-01-08T16:05:38.225Z,208.73
2023-01-08T16:08:26.787Z,233.63
2023-01-08T16:11:15.869Z,214.77
2023-01-08T16:14:04.919Z,224.00
2023-01-08T16:16:47.351Z,223.32
2023-01-08T16:19:38.815Z,226.57
2023-01-08T16:22:27.899Z,215.00
2023-01-08T16:25:18.163Z,213.63
2023-01-08T16:28:00.752Z,223.43
2023-01-08T16:30:44.213Z,221.70
2023-01-08T16:33:32.892Z,243.90
2023-01-08T16:36:21.811Z,252.15
2023-01-08T16:39:04.330Z,240.65
2023-01-08T16:41:52.783Z,241.23
2023-01-08T16:44:36.140Z,243.85
2023-01-08T16:47:24.904Z,261.88
2023-01-08T16:50:20.669Z,248.20
2023-01-08T16:53:12.192Z,257.55
2023-01-08T16:55:54.382Z,253.02
2023-01-08T16:58:43.910Z,259.75
2023-01-08T17:01:26.170Z,250.40
2023-01-08T17:04:14.738Z,264.25
2023-01-08T17:06:58.214Z,246.05
2023-01-08T17:09:47.894Z,250.73
2023-01-08T17:12:30.885Z,270.60
2023-01-08T17:15:19.860Z,249.35
2023-01-08T17:18:08.712Z,249.43
2023-01-08T17:21:01.847Z,256.58
2023-01-08T17:23:44.635Z,258.17
2023-01-08T17:26:33.951Z,254.32
2023-01-08T17:29:16.140Z,254.00
2023-01-08T17:32:04.845Z,256.23
2023-01-08T17:34:47.116Z,250.48
2023-01-08T17:37:38.754Z,257.30
2023-01-08T17:40:21.205Z,237.95
2023-01-08T17:43:09.958Z,257.73
2023-01-08T17:45:53.024Z,261.30
2023-01-08T17:48:50.769Z,240.00
2023-01-08T17:51:34.476Z,246.48
2023-01-08T17:54:27.779Z,264.15
2023-01-08T17:57:10.250Z,252.38
2023-01-08T17:59:59.771Z,263.58
2023-01-08T18:02:48.172Z,262.50
2023-01-08T18:05:30.776Z,265.50
2023-01-08T18:08:20.266Z,273.00
2023-01-08T18:11:02.116Z,277.23
2023-01-08T18:13:51.073Z,292.90
2023-01-08T18:16:34.013Z,274.60
2023-01-08T18:19:23.078Z,271.08
2023-01-08T18:22:05.743Z,270.55
2023-01-08T18:24:47.983Z,276.23
2023-01-08T18:27:36.823Z,262.17
2023-01-08T18:30:26.281Z,254.63
2023-01-08T18:33:07.805Z,258.23
2023-01-08T18:35:56.185Z,260.45
2023-01-08T18:38:38.823Z,257.25
2023-01-08T18:41:47.625Z,266.50
2023-01-08T18:44:30.903Z,249.77
2023-01-08T18:47:19.088Z,252.80
2023-01-08T18:50:15.873Z,251.65
2023-01-08T18:53:05.641Z,242.75
2023-01-08T18:55:48.723Z,230.18
2023-01-08T18:58:38.189Z,217.93
2023-01-08T19:01:20.948Z,207.25
2023-01-08T19:04:03.549Z,215.85
2023-01-08T19:06:52.804Z,216.88
2023-01-08T19:09:41.156Z,214.93
2023-01-08T19:12:23.764Z,215.15
2023-01-08T19:15:13.442Z,211.65
2023-01-08T19:17:56.827Z,204.98
2023-01-08T19:20:51.110Z,215.63
2023-01-08T19:23:33.758Z,204.68
2023-01-08T19:26:23.135Z,216.90
2023-01-08T19:29:05.880Z,216.98
2023-01-08T19:31:55.225Z,211.83
2023-01-08T19:34:37.907Z,211.13
2023-01-08T19:37:27.576Z,214.07
2023-01-08T19:40:10.730Z,209.27
2023-01-08T19:43:17.465Z,202.77
2023-01-08T19:45:59.935Z,199.85
2023-01-08T19:48:55.654Z,207.20
2023-01-08T19:51:44.780Z,195.20
2023-01-08T19:54:27.293Z,186.60
2023-01-08T19:57:15.763Z,183.07
2023-01-08T19:59:58.269Z,191.25
2023-01-08T20:02:53.772Z,195.70
2023-01-08T20:05:36.044Z,189.95
2023-01-08T20:08:24.811Z,183.57
2023-01-08T20:11:19.788Z,187.20
2023-01-08T20:14:09.199Z,190.50
2023-01-08T20:16:52.089Z,191.50
2023-01-08T20:19:40.208Z,189.20
2023-01-08T20:22:22.804Z,183.63
2023-01-08T20:25:06.088Z,196.55
2023-01-08T20:27:54.709Z,193.57
2023-01-08T20:30:43.755Z,193.82
2023-01-08T20:33:26.079Z,191.13
2023-01-08T20:36:23.808Z,188.35
2023-01-08T20:39:13.048Z,193.80
2023-01-08T20:42:04.671Z,191.73
2023-01-08T20:44:46.977Z,205.40
2023-01-08T20:47:35.814Z,203.90
2023-01-08T20:50:26.111Z,200.73
2023-01-08T20:53:07.815Z,200.73
2023-01-08T20:55:50.225Z,199.25
2023-01-08T20:58:38.715Z,196.20
2023-01-08T21:01:32.505Z,202.98
2023-01-08T21:04:18.868Z,192.82
2023-01-08T21:07:01.410Z,193.90
2023-01-08T21:09:51.745Z,192.75
2023-01-08T21:12:34.096Z,193.52
2023-01-08T21:15:23.783Z,187.55
2023-01-08T21:18:06.111Z,188.43
2023-01-08T21:20:54.702Z,184.10
2023-01-08T21:23:36.947Z,184.15
2023-01-08T21:26:26.708Z,175.33
2023-01-08T21:29:10.140Z,199.50
2023-01-08T21:31:58.867Z,188.73
2023-01-08T21:34:47.681Z,194.70
2023-01-08T21:37:32.390Z,183.88
2023-01-08T21:40:22.796Z,180.50
2023-01-08T21:43:23.187Z,191.75
2023-01-08T21:46:11.835Z,180.23
2023-01-08T21:48:55.104Z,205.95
2023-01-08T21:52:01.787Z,194.57
2023-01-08T21:54:44.094Z,193.63
2023-01-08T21:57:35.696Z,190.70
2023-01-08T22:00:26.772Z,192.85
2023-01-08T22:03:15.811Z,192.52
2023-01-08T22:06:09.066Z,189.27
2023-01-08T22:09:01.683Z,190.18
2023-01-08T22:11:44.078Z,199.80
2023-01-08T22:14:32.784Z,183.38
2023-01-08T22:17:15.543Z,188.38
2023-01-08T22:20:05.737Z,203.25
2023-01-08T22:22:48.179Z,202.50
2023-01-08T22:25:36.735Z,200.60
2023-01-08T22:28:18.951Z,203.13
2023-01-08T22:31:12.792Z,209.27
2023-01-08T22:33:55.323Z,210.65
2023-01-08T22:36:43.712Z,205.40
2023-01-08T22:39:25.961Z,224.43
2023-01-08T22:42:14.687Z,232.15
2023-01-08T22:44:58.003Z,226.13
2023-01-08T22:47:46.659Z,247.90
2023-01-08T22:50:29.077Z,231.77
2023-01-08T22:53:17.723Z,243.68
2023-01-08T22:56:00.246Z,250.02
2023-01-08T22:58:49.715Z,245.93
2023-01-08T23:01:34.119Z,251.65
2023-01-08T23:04:22.715Z,253.75
2023-01-08T23:07:05.019Z,262.80
2023-01-08T23:09:54.732Z,258.23
2023-01-08T23:12:36.995Z,264.85
2023-01-08T23:15:26.749Z,258.15
2023-01-08T23:18:09.060Z,267.70
2023-01-08T23:20:57.783Z,285.33
2023-01-08T23:23:40.064Z,287.67
2023-01-08T23:26:32.755Z,309.27
2023-01-08T23:29:15.013Z,324.10
2023-01-08T23:32:06.658Z,305.23
2023-01-08T23:34:49.042Z,306.42
2023-01-08T23:37:37.657Z,303.30
2023-01-08T23:40:20.021Z,284.17
2023-01-08T23:43:08.713Z,296.70
2023-01-08T23:45:51.025Z,284.20
2023-01-08T23:48:39.730Z,275.33
2023-01-08T23:51:28.999Z,291.50
2023-01-08T23:54:11.752Z,288.23
2023-01-08T23:57:00.731Z,300.05
2023-01-08T23:59:49.781Z,298.67
